sensor_id;sensor_type;location;lat;lon;timestamp;pressure;altitude;pressure_sealevel;temperature;humidity
54918;BME280;40818;50.562;7.454;2023-04-26T00:06:34;97878.66;;;2.79;92.97
54918;BME280;40818;50.562;7.454;2023-04-26T00:16:37;97878.16;;;2.68;92.89
54918;BME280;40818;50.562;7.454;2023-04-26T00:26:43;97885.44;;;2.52;93.47
54918;BME280;40818;50.562;7.454;2023-04-26T00:36:47;97870.59;;;2.35;93.90
54918;BME280;40818;50.562;7.454;2023-04-26T00:46:53;97871.97;;;2.17;94.67
54918;BME280;40818;50.562;7.454;2023-04-26T00:56:57;97872.50;;;1.98;96.20
54918;BME280;40818;50.562;7.454;2023-04-26T01:07:06;97866.38;;;1.73;97.89
54918;BME280;40818;50.562;7.454;2023-04-26T01:17:11;97866.13;;;1.52;97.20
54918;BME280;40818;50.562;7.454;2023-04-26T01:27:17;97869.91;;;1.37;99.02
54918;BME280;40818;50.562;7.454;2023-04-26T01:37:21;97872.81;;;1.23;99.62
54918;BME280;40818;50.562;7.454;2023-04-26T01:47:27;97868.88;;;1.10;100.00
54918;BME280;40818;50.562;7.454;2023-04-26T01:57:31;97870.88;;;0.98;100.00
54918;BME280;40818;50.562;7.454;2023-04-26T02:07:37;97863.53;;;0.84;100.00
54918;BME280;40818;50.562;7.454;2023-04-26T02:17:41;97863.16;;;0.65;100.00
54918;BME280;40818;50.562;7.454;2023-04-26T02:27:47;97863.47;;;0.52;100.00
54918;BME280;40818;50.562;7.454;2023-04-26T02:37:51;97860.06;;;0.51;100.00
54918;BME280;40818;50.562;7.454;2023-04-26T02:47:57;97860.22;;;0.45;100.00
54918;BME280;40818;50.562;7.454;2023-04-26T02:58:01;97855.31;;;0.36;100.00
54918;BME280;40818;50.562;7.454;2023-04-26T03:08:08;97861.44;;;0.28;100.00
54918;BME280;40818;50.562;7.454;2023-04-26T03:18:11;97866.97;;;0.07;100.00
54918;BME280;40818;50.562;7.454;2023-04-26T03:28:18;97853.53;;;0.00;100.00
54918;BME280;40818;50.562;7.454;2023-04-26T03:38:21;97853.50;;;0.02;100.00
54918;BME280;40818;50.562;7.454;2023-04-26T03:48:28;97838.28;;;-0.05;100.00
54918;BME280;40818;50.562;7.454;2023-04-26T03:58:32;97831.78;;;-0.20;100.00
54918;BME280;40818;50.562;7.454;2023-04-26T04:08:39;97835.34;;;-0.27;100.00
54918;BME280;40818;50.562;7.454;2023-04-26T04:18:42;97846.50;;;-0.32;100.00
54918;BME280;40818;50.562;7.454;2023-04-26T04:28:49;97844.81;;;-0.33;100.00
54918;BME280;40818;50.562;7.454;2023-04-26T04:38:53;97862.22;;;-0.10;100.00
54918;BME280;40818;50.562;7.454;2023-04-26T04:49:00;97875.34;;;0.53;100.00
54918;BME280;40818;50.562;7.454;2023-04-26T04:59:04;97879.03;;;0.78;100.00
54918;BME280;40818;50.562;7.454;2023-04-26T05:09:10;97887.16;;;0.94;100.00
54918;BME280;40818;50.562;7.454;2023-04-26T05:19:15;97880.81;;;1.75;100.00
54918;BME280;40818;50.562;7.454;2023-04-26T05:29:22;97901.78;;;2.19;100.00
54918;BME280;40818;50.562;7.454;2023-04-26T05:39:35;97906.34;;;3.48;100.00
54918;BME280;40818;50.562;7.454;2023-04-26T05:49:41;97907.66;;;4.99;100.00
54918;BME280;40818;50.562;7.454;2023-04-26T05:59:45;97911.44;;;6.33;100.00
54918;BME280;40818;50.562;7.454;2023-04-26T06:09:53;97906.06;;;7.47;95.44
54918;BME280;40818;50.562;7.454;2023-04-26T06:19:56;97917.13;;;8.34;93.61
54918;BME280;40818;50.562;7.454;2023-04-26T06:30:05;97904.31;;;9.71;85.01
54918;BME280;40818;50.562;7.454;2023-04-26T06:40:13;97917.78;;;11.05;74.67
54918;BME280;40818;50.562;7.454;2023-04-26T06:50:20;97943.94;;;11.82;58.54
54918;BME280;40818;50.562;7.454;2023-04-26T07:00:23;97925.97;;;12.05;62.16
54918;BME280;40818;50.562;7.454;2023-04-26T07:10:30;97935.97;;;12.11;58.77
54918;BME280;40818;50.562;7.454;2023-04-26T07:20:33;97929.94;;;12.97;55.76
54918;BME280;40818;50.562;7.454;2023-04-26T07:30:40;97930.34;;;12.91;55.30
54918;BME280;40818;50.562;7.454;2023-04-26T07:40:43;97930.50;;;13.14;50.63
54918;BME280;40818;50.562;7.454;2023-04-26T07:50:50;97929.47;;;13.04;52.10
54918;BME280;40818;50.562;7.454;2023-04-26T08:00:55;97933.91;;;12.53;49.98
54918;BME280;40818;50.562;7.454;2023-04-26T08:11:01;97931.75;;;12.84;48.84
54918;BME280;40818;50.562;7.454;2023-04-26T08:21:09;97936.34;;;11.79;51.25
54918;BME280;40818;50.562;7.454;2023-04-26T08:31:15;97942.34;;;11.54;51.44
54918;BME280;40818;50.562;7.454;2023-04-26T08:41:21;97922.31;;;12.07;51.64
54918;BME280;40818;50.562;7.454;2023-04-26T08:51:28;97923.44;;;12.42;46.73
54918;BME280;40818;50.562;7.454;2023-04-26T09:01:33;97930.75;;;12.24;48.97
54918;BME280;40818;50.562;7.454;2023-04-26T09:11:55;97919.06;;;13.04;45.13
54918;BME280;40818;50.562;7.454;2023-04-26T09:21:59;97913.38;;;12.61;45.40
54918;BME280;40818;50.562;7.454;2023-04-26T09:32:05;97918.63;;;12.36;44.56
54918;BME280;40818;50.562;7.454;2023-04-26T09:42:09;97912.81;;;12.82;42.58
54918;BME280;40818;50.562;7.454;2023-04-26T09:52:16;97911.47;;;13.01;41.63
54918;BME280;40818;50.562;7.454;2023-04-26T10:02:22;97909.50;;;12.91;42.90
54918;BME280;40818;50.562;7.454;2023-04-26T10:12:28;97905.75;;;12.95;43.05
54918;BME280;40818;50.562;7.454;2023-04-26T10:22:34;97894.44;;;12.84;40.80
54918;BME280;40818;50.562;7.454;2023-04-26T10:43:30;97881.66;;;14.10;41.02
54918;BME280;40818;50.562;7.454;2023-04-26T10:53:57;97872.13;;;12.55;44.37
54918;BME280;40818;50.562;7.454;2023-04-26T11:04:07;97865.81;;;13.55;43.25
54918;BME280;40818;50.562;7.454;2023-04-26T11:14:13;97859.84;;;14.77;39.38
54918;BME280;40818;50.562;7.454;2023-04-26T11:24:23;97854.16;;;15.47;37.99
54918;BME280;40818;50.562;7.454;2023-04-26T11:34:31;97855.00;;;15.68;40.17
54918;BME280;40818;50.562;7.454;2023-04-26T11:44:38;97847.53;;;16.26;38.11
54918;BME280;40818;50.562;7.454;2023-04-26T11:54:42;97843.56;;;16.31;39.27
54918;BME280;40818;50.562;7.454;2023-04-26T12:04:57;97839.75;;;15.52;40.80
54918;BME280;40818;50.562;7.454;2023-04-26T12:15:08;97841.28;;;16.77;33.95
54918;BME280;40818;50.562;7.454;2023-04-26T12:25:18;97831.25;;;14.97;39.80
54918;BME280;40818;50.562;7.454;2023-04-26T12:35:22;97829.19;;;14.24;40.44
54918;BME280;40818;50.562;7.454;2023-04-26T12:45:28;97829.69;;;15.27;38.02
54918;BME280;40818;50.562;7.454;2023-04-26T12:55:31;97828.97;;;15.77;35.84
54918;BME280;40818;50.562;7.454;2023-04-26T13:05:38;97836.75;;;15.15;37.69
54918;BME280;40818;50.562;7.454;2023-04-26T13:15:41;97835.00;;;15.25;35.68
54918;BME280;40818;50.562;7.454;2023-04-26T13:25:47;97827.94;;;13.26;39.21
54918;BME280;40818;50.562;7.454;2023-04-26T13:35:51;97819.31;;;14.39;39.62
54918;BME280;40818;50.562;7.454;2023-04-26T13:45:57;97808.91;;;14.72;37.70
54918;BME280;40818;50.562;7.454;2023-04-26T13:56:00;97811.91;;;13.78;40.14
54918;BME280;40818;50.562;7.454;2023-04-26T14:06:07;97813.22;;;12.90;41.97
54918;BME280;40818;50.562;7.454;2023-04-26T14:16:10;97806.31;;;14.60;36.95
54918;BME280;40818;50.562;7.454;2023-04-26T14:26:17;97812.41;;;12.89;39.27
54918;BME280;40818;50.562;7.454;2023-04-26T14:36:21;97796.66;;;13.26;39.54
54918;BME280;40818;50.562;7.454;2023-04-26T14:46:27;97800.69;;;11.47;42.98
54918;BME280;40818;50.562;7.454;2023-04-26T14:56:34;97805.56;;;11.00;44.91
54918;BME280;40818;50.562;7.454;2023-04-26T15:06:40;97798.06;;;10.55;45.27
54918;BME280;40818;50.562;7.454;2023-04-26T15:16:43;97792.25;;;10.51;45.71
54918;BME280;40818;50.562;7.454;2023-04-26T15:26:50;97782.53;;;10.68;46.09
54918;BME280;40818;50.562;7.454;2023-04-26T15:36:53;97773.44;;;11.52;44.97
54918;BME280;40818;50.562;7.454;2023-04-26T15:46:59;97778.25;;;11.46;43.77
54918;BME280;40818;50.562;7.454;2023-04-26T15:57:03;97777.59;;;10.90;42.74
54918;BME280;40818;50.562;7.454;2023-04-26T16:07:09;97767.41;;;11.13;44.61
54918;BME280;40818;50.562;7.454;2023-04-26T16:17:13;97767.31;;;10.07;45.77
54918;BME280;40818;50.562;7.454;2023-04-26T16:27:20;97768.50;;;9.60;45.17
54918;BME280;40818;50.562;7.454;2023-04-26T16:37:23;97764.59;;;9.67;46.47
54918;BME280;40818;50.562;7.454;2023-04-26T16:47:29;97763.28;;;9.74;47.55
54918;BME280;40818;50.562;7.454;2023-04-26T16:57:33;97760.63;;;9.61;47.57
54918;BME280;40818;50.562;7.454;2023-04-26T17:07:39;97771.06;;;9.74;46.84
54918;BME280;40818;50.562;7.454;2023-04-26T17:17:42;97768.09;;;9.22;47.46
54918;BME280;40818;50.562;7.454;2023-04-26T17:27:49;97777.53;;;9.09;47.75
54918;BME280;40818;50.562;7.454;2023-04-26T17:37:52;97782.13;;;8.90;48.60
54918;BME280;40818;50.562;7.454;2023-04-26T17:47:58;97787.38;;;8.58;49.11
54918;BME280;40818;50.562;7.454;2023-04-26T17:58:02;97793.25;;;8.45;49.42
54918;BME280;40818;50.562;7.454;2023-04-26T18:08:08;97801.31;;;8.23;49.34
54918;BME280;40818;50.562;7.454;2023-04-26T18:18:12;97803.91;;;7.91;50.70
54918;BME280;40818;50.562;7.454;2023-04-26T18:28:18;97812.03;;;7.67;51.21
54918;BME280;40818;50.562;7.454;2023-04-26T18:38:22;97817.38;;;7.47;51.87
54918;BME280;40818;50.562;7.454;2023-04-26T18:48:28;97835.13;;;7.02;53.21
54918;BME280;40818;50.562;7.454;2023-04-26T18:58:31;97840.34;;;6.83;53.73
54918;BME280;40818;50.562;7.454;2023-04-26T19:08:38;97842.84;;;6.67;54.11
54918;BME280;40818;50.562;7.454;2023-04-26T19:18:41;97855.13;;;6.43;54.68
54918;BME280;40818;50.562;7.454;2023-04-26T19:28:49;97857.81;;;6.22;54.46
54918;BME280;40818;50.562;7.454;2023-04-26T19:38:55;97861.53;;;5.96;55.42
54918;BME280;40818;50.562;7.454;2023-04-26T19:49:00;97865.03;;;5.74;56.77
54918;BME280;40818;50.562;7.454;2023-04-26T19:59:04;97870.94;;;5.57;57.77
54918;BME280;40818;50.562;7.454;2023-04-26T20:09:11;97879.69;;;5.53;57.67
54918;BME280;40818;50.562;7.454;2023-04-26T20:19:16;97885.81;;;5.51;58.07
54918;BME280;40818;50.562;7.454;2023-04-26T20:29:22;97877.19;;;5.52;57.69
54918;BME280;40818;50.562;7.454;2023-04-26T20:39:26;97879.91;;;5.49;57.70
54918;BME280;40818;50.562;7.454;2023-04-26T20:49:35;97889.34;;;5.48;58.35
54918;BME280;40818;50.562;7.454;2023-04-26T20:59:39;97881.75;;;5.45;58.79
54918;BME280;40818;50.562;7.454;2023-04-26T21:09:45;97887.03;;;5.42;59.69
54918;BME280;40818;50.562;7.454;2023-04-26T21:19:48;97895.84;;;5.36;59.49
54918;BME280;40818;50.562;7.454;2023-04-26T21:29:54;97893.47;;;5.32;59.53
54918;BME280;40818;50.562;7.454;2023-04-26T21:39:58;97894.44;;;5.29;60.08
54918;BME280;40818;50.562;7.454;2023-04-26T21:50:07;97895.47;;;5.25;61.02
54918;BME280;40818;50.562;7.454;2023-04-26T22:00:14;97910.25;;;5.20;61.54
54918;BME280;40818;50.562;7.454;2023-04-26T22:10:23;97906.25;;;5.12;64.14
54918;BME280;40818;50.562;7.454;2023-04-26T22:20:26;97908.09;;;5.09;64.88
54918;BME280;40818;50.562;7.454;2023-04-26T22:30:32;97910.34;;;4.96;65.59
54918;BME280;40818;50.562;7.454;2023-04-26T22:40:35;97919.22;;;4.89;67.78
54918;BME280;40818;50.562;7.454;2023-04-26T22:50:42;97918.06;;;4.96;66.66
54918;BME280;40818;50.562;7.454;2023-04-26T23:00:45;97917.47;;;4.89;67.57
54918;BME280;40818;50.562;7.454;2023-04-26T23:10:51;97917.25;;;4.73;69.30
54918;BME280;40818;50.562;7.454;2023-04-26T23:20:55;97917.72;;;4.61;69.50
54918;BME280;40818;50.562;7.454;2023-04-26T23:31:01;97919.50;;;4.35;71.15
54918;BME280;40818;50.562;7.454;2023-04-26T23:41:05;97915.28;;;4.10;71.98
54918;BME280;40818;50.562;7.454;2023-04-26T23:51:11;97915.75;;;3.98;74.97
